createdAt,value
2023-05-09T00:01:21.034Z,14.50
2023-05-09T00:03:47.832Z,14.50
2023-05-09T00:06:15.432Z,14.50
2023-05-09T00:08:42.085Z,14.50
2023-05-09T00:11:08.945Z,14.60
2023-05-09T00:13:35.909Z,14.60
2023-05-09T00:16:03.481Z,14.60
2023-05-09T00:18:31.214Z,14.60
2023-05-09T00:20:58.047Z,14.60
2023-05-09T00:23:24.680Z,14.60
2023-05-09T00:25:51.371Z,14.70
2023-05-09T00:28:18.137Z,14.70
2023-05-09T00:30:44.886Z,14.70
2023-05-09T00:33:11.690Z,14.70
2023-05-09T00:35:38.611Z,14.70
2023-05-09T00:38:05.313Z,14.80
2023-05-09T00:40:32.019Z,14.80
2023-05-09T00:43:01.374Z,14.80
2023-05-09T00:45:28.107Z,14.80
2023-05-09T00:47:55.537Z,14.80
2023-05-09T00:50:22.170Z,14.80
2023-05-09T00:52:48.927Z,14.80
2023-05-09T00:55:16.451Z,14.80
2023-05-09T00:57:43.642Z,14.80
2023-05-09T01:00:14.465Z,14.80
2023-05-09T01:02:48.278Z,14.80
2023-05-09T01:05:15.441Z,14.80
2023-05-09T01:08:03.190Z,14.80
2023-05-09T01:10:32.764Z,14.80
2023-05-09T01:13:04.836Z,14.80
2023-05-09T01:15:31.601Z,14.90
2023-05-09T01:21:08.749Z,14.90
2023-05-09T01:23:44.382Z,14.90
2023-05-09T01:26:45.257Z,14.80
2023-05-09T01:29:35.695Z,14.80
2023-05-09T01:32:10.053Z,14.80
2023-05-09T01:34:40.402Z,14.80
2023-05-09T01:37:08.317Z,14.80
2023-05-09T01:39:39.757Z,14.70
2023-05-09T01:42:09.665Z,14.80
2023-05-09T01:44:39.696Z,14.80
2023-05-09T01:47:08.163Z,14.70
2023-05-09T01:49:36.529Z,14.70
2023-05-09T01:52:08.087Z,14.60
2023-05-09T01:54:35.960Z,14.60
2023-05-09T01:57:04.015Z,14.50
2023-05-09T01:59:33.155Z,14.50
2023-05-09T02:02:00.042Z,14.40
2023-05-09T02:04:29.092Z,14.50
2023-05-09T02:06:57.070Z,14.40
2023-05-09T02:09:24.205Z,14.40
2023-05-09T02:11:50.858Z,14.50
2023-05-09T02:14:17.838Z,14.50
2023-05-09T02:16:44.595Z,14.40
2023-05-09T02:19:11.350Z,14.50
2023-05-09T02:21:38.318Z,14.50
2023-05-09T02:24:05.432Z,14.50
2023-05-09T02:26:32.848Z,14.50
2023-05-09T02:29:00.694Z,14.50
2023-05-09T02:31:29.558Z,14.60
2023-05-09T02:33:56.934Z,14.50
2023-05-09T02:36:25.214Z,14.50
2023-05-09T02:38:52.127Z,14.60
2023-05-09T02:41:18.921Z,14.60
2023-05-09T02:43:46.128Z,14.60
2023-05-09T02:46:13.023Z,14.60
2023-05-09T02:48:39.848Z,14.60
2023-05-09T02:51:06.561Z,14.60
2023-05-09T02:53:33.311Z,14.50
2023-05-09T02:55:59.927Z,14.50
2023-05-09T02:58:26.694Z,14.50
2023-05-09T03:00:53.289Z,14.50
2023-05-09T03:03:22.110Z,14.50
2023-05-09T03:05:48.846Z,14.60
2023-05-09T03:08:15.953Z,14.60
2023-05-09T03:10:42.653Z,14.60
2023-05-09T03:13:09.326Z,14.60
2023-05-09T03:15:36.094Z,14.50
2023-05-09T03:18:02.773Z,14.60
2023-05-09T03:20:29.423Z,14.60
2023-05-09T03:22:56.104Z,14.60
2023-05-09T03:25:22.824Z,14.60
2023-05-09T03:27:49.497Z,14.60
2023-05-09T03:30:16.161Z,14.60
2023-05-09T03:32:42.964Z,14.60
2023-05-09T03:35:09.732Z,14.60
2023-05-09T03:37:36.352Z,14.60
2023-05-09T03:40:03.828Z,14.60
2023-05-09T03:42:30.988Z,14.50
2023-05-09T03:44:58.043Z,14.50
2023-05-09T03:47:24.622Z,14.50
2023-05-09T03:49:51.340Z,14.50
2023-05-09T03:52:17.945Z,14.50
2023-05-09T03:54:44.537Z,14.50
2023-05-09T03:57:11.326Z,14.40
2023-05-09T03:59:37.900Z,14.40
2023-05-09T04:02:04.668Z,14.40
2023-05-09T04:04:31.345Z,14.40
2023-05-09T04:06:57.960Z,14.30
2023-05-09T04:09:24.896Z,14.30
2023-05-09T04:11:51.478Z,14.30
2023-05-09T04:14:18.349Z,14.30
2023-05-09T04:16:44.988Z,14.20
2023-05-09T04:19:11.729Z,14.20
2023-05-09T04:21:38.414Z,14.20
2023-05-09T04:24:05.765Z,14.20
2023-05-09T04:26:32.724Z,14.20
2023-05-09T04:28:59.354Z,14.20
2023-05-09T04:31:26.587Z,14.30
2023-05-09T04:33:53.627Z,14.30
2023-05-09T04:36:21.217Z,14.20
2023-05-09T04:38:47.816Z,14.20
2023-05-09T04:41:14.581Z,14.30
2023-05-09T04:43:41.476Z,14.30
2023-05-09T04:46:08.365Z,14.30
2023-05-09T04:48:35.887Z,14.40
2023-05-09T04:51:02.533Z,14.40
2023-05-09T04:53:29.549Z,14.50
2023-05-09T04:55:56.245Z,14.50
2023-05-09T04:58:22.991Z,14.60
2023-05-09T05:00:50.049Z,14.60
2023-05-09T05:03:17.897Z,14.70
2023-05-09T05:05:45.158Z,14.80
2023-05-09T05:08:11.929Z,14.80
2023-05-09T05:10:38.673Z,14.90
2023-05-09T05:13:05.433Z,14.90
2023-05-09T05:15:32.060Z,14.90
2023-05-09T05:17:58.719Z,15.00
2023-05-09T05:20:25.354Z,14.90
2023-05-09T05:22:52.076Z,15.00
2023-05-09T05:25:18.750Z,14.90
2023-05-09T05:27:45.455Z,14.80
2023-05-09T05:30:13.798Z,14.90
2023-05-09T05:32:40.572Z,15.10
2023-05-09T05:35:07.674Z,15.30
2023-05-09T05:37:34.346Z,15.30
2023-05-09T05:40:01.244Z,15.40
2023-05-09T05:42:27.974Z,15.50
2023-05-09T05:44:54.568Z,15.70
2023-05-09T05:47:21.195Z,15.70
2023-05-09T05:49:48.466Z,15.80
2023-05-09T05:52:15.074Z,16.00
2023-05-09T05:54:41.853Z,16.10
2023-05-09T05:57:08.592Z,16.20
2023-05-09T05:59:35.328Z,16.20
2023-05-09T06:02:02.132Z,16.30
2023-05-09T06:04:29.077Z,16.30
2023-05-09T06:06:55.853Z,16.10
2023-05-09T06:09:22.493Z,16.10
2023-05-09T06:11:49.128Z,16.10
2023-05-09T06:14:15.719Z,16.10
2023-05-09T06:16:42.424Z,16.20
2023-05-09T06:19:09.052Z,16.20
2023-05-09T06:21:35.694Z,16.10
2023-05-09T06:24:10.137Z,16.10
2023-05-09T06:26:41.179Z,16.00
2023-05-09T06:29:08.106Z,15.90
2023-05-09T06:31:39.114Z,15.90
2023-05-09T06:34:06.375Z,15.90
2023-05-09T06:36:33.447Z,16.00
2023-05-09T06:39:00.392Z,16.20
2023-05-09T06:41:27.033Z,16.30
2023-05-09T06:43:53.771Z,16.40
2023-05-09T06:46:20.512Z,16.60
2023-05-09T06:48:47.201Z,16.60
2023-05-09T06:51:13.804Z,16.50
2023-05-09T06:53:40.402Z,16.60
2023-05-09T06:56:07.279Z,16.90
2023-05-09T06:58:33.939Z,17.30
2023-05-09T07:01:00.651Z,17.50
2023-05-09T07:03:27.455Z,17.40
2023-05-09T07:05:56.800Z,17.50
2023-05-09T07:08:23.376Z,17.50
2023-05-09T07:10:50.036Z,17.40
2023-05-09T07:13:16.845Z,17.40
2023-05-09T07:15:43.700Z,17.10
2023-05-09T07:18:10.581Z,17.40
2023-05-09T07:20:37.460Z,17.10
2023-05-09T07:23:04.801Z,17.10
2023-05-09T07:25:31.912Z,17.10
2023-05-09T07:27:58.641Z,17.40
2023-05-09T07:30:25.348Z,16.80
2023-05-09T07:32:52.359Z,16.80
2023-05-09T07:35:20.041Z,16.70
2023-05-09T07:37:46.828Z,16.50
2023-05-09T07:40:14.057Z,16.40
2023-05-09T07:42:40.974Z,16.30
2023-05-09T07:45:08.068Z,16.30
2023-05-09T07:47:34.933Z,16.30
2023-05-09T07:50:01.702Z,16.30
2023-05-09T07:52:28.335Z,16.50
2023-05-09T07:54:55.120Z,16.50
2023-05-09T07:57:22.534Z,16.70
2023-05-09T07:59:49.219Z,16.80
2023-05-09T08:02:15.933Z,16.80
2023-05-09T08:04:42.652Z,16.80
2023-05-09T08:07:09.420Z,16.80
2023-05-09T08:09:36.232Z,16.80
2023-05-09T08:12:02.964Z,16.90
2023-05-09T08:14:29.825Z,16.80
2023-05-09T08:16:56.436Z,17.00
2023-05-09T08:19:26.134Z,17.10
2023-05-09T08:21:53.344Z,17.10
2023-05-09T08:24:20.207Z,17.20
2023-05-09T08:26:47.146Z,17.30
2023-05-09T08:29:13.894Z,17.40
2023-05-09T08:31:41.142Z,17.40
2023-05-09T08:34:07.927Z,17.20
2023-05-09T08:36:34.714Z,17.30
2023-05-09T08:39:02.350Z,17.00
2023-05-09T08:41:29.753Z,16.90
2023-05-09T08:43:56.586Z,17.00
2023-05-09T08:46:28.559Z,17.00
2023-05-09T08:48:56.756Z,17.00
2023-05-09T08:51:23.958Z,17.10
2023-05-09T08:53:51.951Z,16.90
2023-05-09T08:56:18.892Z,16.80
2023-05-09T08:58:45.852Z,16.90
2023-05-09T09:01:14.390Z,16.90
2023-05-09T09:03:47.529Z,16.70
2023-05-09T09:06:14.369Z,16.60
2023-05-09T09:08:41.953Z,16.60
2023-05-09T09:11:11.918Z,16.70
2023-05-09T09:13:41.190Z,16.80
2023-05-09T09:16:20.968Z,16.80
2023-05-09T09:18:49.654Z,16.80
2023-05-09T09:21:17.815Z,17.00
2023-05-09T09:23:47.616Z,16.80
2023-05-09T09:26:14.303Z,16.60
2023-05-09T09:28:41.388Z,16.60
2023-05-09T09:31:25.544Z,16.70
2023-05-09T09:33:52.224Z,16.70
2023-05-09T09:36:29.125Z,16.80
2023-05-09T09:39:00.642Z,16.80
2023-05-09T09:41:34.303Z,16.70
2023-05-09T09:44:11.543Z,16.70
2023-05-09T09:46:48.871Z,16.70
2023-05-09T09:49:18.160Z,16.80
2023-05-09T09:51:45.049Z,16.90
2023-05-09T09:54:13.095Z,16.90
2023-05-09T09:56:40.277Z,17.00
2023-05-09T09:59:12.197Z,17.00
2023-05-09T10:02:09.501Z,17.00
2023-05-09T10:04:37.940Z,16.90
2023-05-09T10:07:07.176Z,17.10
2023-05-09T10:09:35.160Z,17.30
2023-05-09T10:12:06.454Z,17.30
2023-05-09T10:14:35.838Z,17.40
2023-05-09T10:17:04.863Z,17.50
2023-05-09T10:19:32.260Z,17.50
2023-05-09T10:22:10.308Z,17.40
2023-05-09T10:24:45.750Z,17.40
2023-05-09T10:27:13.107Z,17.30
2023-05-09T10:29:45.762Z,17.40
2023-05-09T10:32:18.256Z,17.50
2023-05-09T10:34:50.088Z,17.60
2023-05-09T10:37:17.944Z,17.60
2023-05-09T10:39:44.692Z,17.60
2023-05-09T10:42:13.982Z,17.80
2023-05-09T10:44:40.932Z,18.00
2023-05-09T10:47:08.096Z,18.00
2023-05-09T10:49:37.088Z,17.90
2023-05-09T10:52:04.382Z,18.10
2023-05-09T10:54:33.511Z,18.10
2023-05-09T10:57:00.877Z,17.90
2023-05-09T10:59:38.058Z,17.90
2023-05-09T11:02:05.582Z,17.80
2023-05-09T11:04:33.051Z,17.80
2023-05-09T11:07:00.756Z,17.80
2023-05-09T11:09:38.922Z,17.60
2023-05-09T11:12:06.019Z,17.60
2023-05-09T11:14:54.550Z,17.60
2023-05-09T11:17:21.244Z,17.70
2023-05-09T11:19:47.962Z,17.80
2023-05-09T11:22:22.215Z,17.90
2023-05-09T11:24:50.322Z,17.90
2023-05-09T11:27:19.514Z,17.80
2023-05-09T11:29:51.170Z,17.80
2023-05-09T11:32:18.334Z,17.80
2023-05-09T11:34:45.780Z,17.70
2023-05-09T11:37:15.843Z,17.80
2023-05-09T11:40:00.053Z,17.70
2023-05-09T11:42:30.481Z,17.70
2023-05-09T11:44:58.922Z,17.70
2023-05-09T11:47:26.384Z,17.60
2023-05-09T11:49:53.218Z,17.60
2023-05-09T11:52:21.703Z,17.50
2023-05-09T11:54:49.655Z,17.30
2023-05-09T11:57:19.620Z,17.10
2023-05-09T11:59:46.368Z,16.90
2023-05-09T12:02:13.481Z,16.70
2023-05-09T12:04:40.195Z,16.70
2023-05-09T12:07:07.124Z,16.50
2023-05-09T12:09:37.890Z,16.50
2023-05-09T12:12:14.429Z,16.40
2023-05-09T12:14:41.680Z,16.40
2023-05-09T12:17:08.459Z,16.40
2023-05-09T12:19:35.449Z,16.40
2023-05-09T12:22:03.825Z,16.50
2023-05-09T12:24:31.284Z,16.60
2023-05-09T12:26:59.505Z,16.70
2023-05-09T12:29:27.246Z,16.90
2023-05-09T12:31:54.530Z,17.10
2023-05-09T12:34:21.518Z,17.20
2023-05-09T12:36:50.851Z,17.40
2023-05-09T12:39:22.897Z,17.60
2023-05-09T12:42:01.059Z,18.00
2023-05-09T12:44:29.639Z,18.20
2023-05-09T12:47:02.846Z,17.90
2023-05-09T12:49:31.574Z,18.00
2023-05-09T12:52:01.570Z,18.10
2023-05-09T12:54:30.264Z,18.30
2023-05-09T12:56:58.455Z,18.50
2023-05-09T12:59:26.967Z,18.40
2023-05-09T13:02:00.679Z,18.40
2023-05-09T13:04:28.519Z,18.10
2023-05-09T13:06:57.724Z,18.00
2023-05-09T13:09:26.277Z,17.90
2023-05-09T13:11:53.618Z,17.80
2023-05-09T13:14:23.595Z,17.70
2023-05-09T13:16:50.397Z,17.80
2023-05-09T13:19:17.160Z,17.80
2023-05-09T13:21:43.819Z,17.90
2023-05-09T13:24:10.717Z,18.00
2023-05-09T13:26:37.286Z,18.00
2023-05-09T13:29:03.997Z,18.00
2023-05-09T13:31:31.144Z,18.00
2023-05-09T13:33:57.892Z,17.80
2023-05-09T13:36:24.604Z,17.60
2023-05-09T13:38:51.196Z,17.50
2023-05-09T13:41:21.778Z,17.40
2023-05-09T13:43:48.638Z,17.30
2023-05-09T13:46:15.659Z,17.20
2023-05-09T13:48:42.441Z,17.20
2023-05-09T13:51:09.952Z,17.00
2023-05-09T13:53:38.860Z,16.90
2023-05-09T13:56:07.491Z,16.90
2023-05-09T13:58:34.173Z,16.80
2023-05-09T14:01:00.831Z,16.90
2023-05-09T14:03:27.575Z,16.80
2023-05-09T14:05:54.327Z,16.80
2023-05-09T14:08:21.468Z,16.80
2023-05-09T14:10:48.220Z,16.90
2023-05-09T14:13:15.694Z,17.00
2023-05-09T14:15:42.495Z,17.10
2023-05-09T14:18:09.223Z,17.20
2023-05-09T14:20:37.453Z,17.40
2023-05-09T14:23:04.286Z,17.50
2023-05-09T14:25:30.935Z,17.70
2023-05-09T14:27:59.270Z,17.90
2023-05-09T14:30:26.663Z,18.00
2023-05-09T14:32:53.481Z,18.00
2023-05-09T14:35:20.371Z,18.00
2023-05-09T14:37:47.189Z,18.10
2023-05-09T14:40:14.776Z,18.10
2023-05-09T14:42:42.155Z,18.10
2023-05-09T14:45:12.144Z,18.00
2023-05-09T14:47:38.980Z,18.00
2023-05-09T14:50:07.311Z,18.00
2023-05-09T14:52:34.057Z,18.10
2023-05-09T14:55:00.701Z,18.10
2023-05-09T14:57:27.646Z,18.10
2023-05-09T14:59:54.293Z,18.10
2023-05-09T15:02:21.079Z,18.10
2023-05-09T15:04:47.727Z,17.90
2023-05-09T15:07:14.334Z,17.90
2023-05-09T15:09:41.784Z,17.90
2023-05-09T15:12:08.424Z,17.90
2023-05-09T15:14:35.145Z,17.90
2023-05-09T15:17:04.242Z,18.00
2023-05-09T15:19:31.493Z,18.00
2023-05-09T15:21:59.694Z,17.90
2023-05-09T15:24:26.860Z,17.80
2023-05-09T15:26:54.277Z,17.90
2023-05-09T15:29:21.737Z,18.00
2023-05-09T15:31:48.976Z,18.00
2023-05-09T15:34:15.634Z,18.00
2023-05-09T15:36:42.362Z,18.10
2023-05-09T15:39:09.094Z,18.20
2023-05-09T15:41:35.687Z,18.10
2023-05-09T15:44:02.399Z,18.00
2023-05-09T15:46:29.694Z,18.00
2023-05-09T15:48:58.224Z,17.80
2023-05-09T15:51:25.169Z,17.80
2023-05-09T15:53:52.006Z,17.80
2023-05-09T15:56:19.070Z,17.70
2023-05-09T15:58:46.091Z,17.50
2023-05-09T16:01:14.428Z,17.10
2023-05-09T16:03:41.638Z,16.90
2023-05-09T16:06:08.404Z,16.70
2023-05-09T16:08:35.116Z,16.40
2023-05-09T16:11:02.040Z,16.40
2023-05-09T16:13:29.857Z,16.40
2023-05-09T16:15:56.926Z,16.50
2023-05-09T16:18:23.803Z,16.20
2023-05-09T16:20:50.655Z,16.40
2023-05-09T16:23:17.622Z,16.00
2023-05-09T16:25:44.991Z,16.30
2023-05-09T16:28:11.742Z,16.10
2023-05-09T16:30:38.448Z,16.30
2023-05-09T16:33:05.069Z,16.20
2023-05-09T16:35:31.850Z,16.00
2023-05-09T16:37:58.562Z,16.20
2023-05-09T16:40:25.207Z,16.00
2023-05-09T16:42:53.098Z,15.80
2023-05-09T16:45:19.810Z,15.80
2023-05-09T16:47:46.506Z,15.80
2023-05-09T16:50:13.613Z,15.50
2023-05-09T16:52:40.343Z,15.50
2023-05-09T16:55:07.331Z,15.60
2023-05-09T16:57:34.031Z,15.40
2023-05-09T17:00:00.903Z,15.40
2023-05-09T17:02:27.672Z,15.60
2023-05-09T17:04:54.638Z,15.40
2023-05-09T17:07:21.425Z,15.30
2023-05-09T17:09:49.637Z,15.40
2023-05-09T17:12:18.276Z,15.50
2023-05-09T17:14:46.608Z,15.70
2023-05-09T17:17:14.512Z,15.70
2023-05-09T17:19:41.198Z,15.50
2023-05-09T17:22:08.608Z,15.50
2023-05-09T17:24:35.250Z,15.60
2023-05-09T17:27:02.158Z,15.80
2023-05-09T17:29:30.734Z,15.60
2023-05-09T17:32:00.564Z,15.70
2023-05-09T17:34:28.140Z,15.90
2023-05-09T17:36:54.758Z,15.70
2023-05-09T17:39:22.040Z,15.70
2023-05-09T17:41:48.684Z,15.70
2023-05-09T17:44:15.923Z,15.80
2023-05-09T17:46:43.022Z,15.80
2023-05-09T17:49:11.052Z,15.90
2023-05-09T17:51:37.708Z,15.80
2023-05-09T17:54:05.472Z,15.60
2023-05-09T17:56:32.198Z,15.70
2023-05-09T17:59:01.854Z,15.50
2023-05-09T18:01:28.527Z,15.50
2023-05-09T18:03:55.230Z,15.50
2023-05-09T18:06:21.984Z,15.40
2023-05-09T18:08:48.639Z,15.70
2023-05-09T18:11:15.523Z,15.70
2023-05-09T18:13:42.181Z,15.60
2023-05-09T18:16:08.944Z,15.70
2023-05-09T18:18:36.452Z,15.80
2023-05-09T18:21:04.846Z,15.80
2023-05-09T18:23:31.563Z,15.30
2023-05-09T18:25:58.322Z,15.50
2023-05-09T18:28:25.730Z,15.00
2023-05-09T18:31:00.400Z,15.50
2023-05-09T18:33:28.617Z,15.40
2023-05-09T18:35:55.335Z,14.60
2023-05-09T18:38:23.718Z,15.50
2023-05-09T18:40:51.926Z,15.40
2023-05-09T18:43:20.688Z,14.50
2023-05-09T18:45:48.109Z,15.90
2023-05-09T18:48:17.558Z,16.10
2023-05-09T18:50:44.772Z,14.20
2023-05-09T18:53:11.562Z,15.50
2023-05-09T18:55:38.740Z,14.60
2023-05-09T18:58:06.208Z,14.40
2023-05-09T19:00:34.204Z,14.20
2023-05-09T19:03:00.932Z,14.50
2023-05-09T19:05:27.753Z,14.30
2023-05-09T19:07:54.411Z,16.20
2023-05-09T19:10:21.262Z,15.60
2023-05-09T19:12:49.023Z,14.40
2023-05-09T19:15:16.063Z,14.60
2023-05-09T19:17:42.707Z,15.30
2023-05-09T19:20:10.028Z,13.90
2023-05-09T19:22:36.912Z,15.70
2023-05-09T19:25:03.792Z,14.00
2023-05-09T19:27:30.611Z,14.20
2023-05-09T19:29:57.215Z,15.90
2023-05-09T19:32:23.821Z,15.50
2023-05-09T19:34:50.612Z,15.80
2023-05-09T19:37:17.363Z,16.20
2023-05-09T19:39:44.089Z,14.40
2023-05-09T19:42:10.831Z,14.20
2023-05-09T19:44:37.465Z,14.00
2023-05-09T19:47:05.370Z,13.90
2023-05-09T19:49:32.795Z,13.90
2023-05-09T19:51:59.399Z,15.80
2023-05-09T19:54:27.051Z,13.70
2023-05-09T19:56:53.822Z,16.10
2023-05-09T19:59:20.543Z,14.20
2023-05-09T20:01:47.244Z,16.00
2023-05-09T20:04:13.928Z,14.30
2023-05-09T20:06:41.200Z,16.30
2023-05-09T20:09:07.830Z,13.60
2023-05-09T20:11:34.462Z,13.50
2023-05-09T20:14:00.999Z,13.50
2023-05-09T20:16:27.767Z,15.50
2023-05-09T20:18:55.046Z,16.00
2023-05-09T20:21:21.824Z,14.50
2023-05-09T20:23:48.394Z,16.00
2023-05-09T20:26:15.007Z,16.00
2023-05-09T20:28:41.643Z,13.50
2023-05-09T20:31:08.289Z,15.00
2023-05-09T20:33:35.141Z,13.70
2023-05-09T20:36:01.812Z,13.60
2023-05-09T20:38:28.515Z,15.40
2023-05-09T20:40:55.150Z,14.80
2023-05-09T20:43:21.838Z,14.00
2023-05-09T20:45:48.599Z,16.20
2023-05-09T20:48:15.262Z,15.60
2023-05-09T20:50:41.975Z,15.30
2023-05-09T20:53:08.644Z,16.10
2023-05-09T20:55:35.275Z,13.30
2023-05-09T20:58:01.961Z,15.40
2023-05-09T21:00:28.758Z,13.60
2023-05-09T21:02:58.274Z,16.00
2023-05-09T21:05:25.522Z,16.10
2023-05-09T21:07:52.093Z,15.40
2023-05-09T21:10:18.859Z,16.20
2023-05-09T21:12:45.606Z,14.90
2023-05-09T21:15:12.308Z,15.60
2023-05-09T21:17:39.007Z,13.60
2023-05-09T21:20:06.369Z,14.80
2023-05-09T21:22:33.015Z,15.50
2023-05-09T21:24:59.606Z,13.50
2023-05-09T21:27:26.969Z,15.60
2023-05-09T21:29:53.561Z,14.10
2023-05-09T21:32:20.178Z,13.70
2023-05-09T21:34:47.827Z,13.70
2023-05-09T21:37:15.110Z,15.00
2023-05-09T21:39:41.839Z,13.50
2023-05-09T21:42:08.887Z,13.40
2023-05-09T21:44:35.947Z,14.30
2023-05-09T21:47:02.755Z,13.30
2023-05-09T21:49:29.624Z,14.60
2023-05-09T21:51:56.366Z,13.10
2023-05-09T21:54:23.307Z,14.70
2023-05-09T21:56:49.906Z,15.10
2023-05-09T21:59:17.799Z,15.60
2023-05-09T22:01:46.019Z,13.50
2023-05-09T22:04:12.823Z,15.50
2023-05-09T22:06:41.587Z,13.20
2023-05-09T22:09:09.390Z,15.30
2023-05-09T22:11:36.447Z,15.50
2023-05-09T22:14:03.168Z,15.90
2023-05-09T22:16:30.291Z,13.40
2023-05-09T22:18:57.064Z,14.10
2023-05-09T22:21:23.688Z,14.10
2023-05-09T22:23:50.355Z,14.00
2023-05-09T22:26:16.930Z,15.50
2023-05-09T22:28:43.615Z,14.80
2023-05-09T22:31:10.510Z,13.70
2023-05-09T22:33:37.119Z,14.10
2023-05-09T22:36:04.030Z,14.20
2023-05-09T22:38:30.703Z,15.70
2023-05-09T22:40:57.322Z,14.70
2023-05-09T22:43:25.393Z,14.20
2023-05-09T22:45:55.395Z,15.10
2023-05-09T22:48:22.039Z,14.70
2023-05-09T22:50:48.890Z,15.70
2023-05-09T22:53:16.445Z,15.50
2023-05-09T22:55:43.036Z,15.60
2023-05-09T22:58:10.163Z,14.80
2023-05-09T23:00:36.885Z,13.30
2023-05-09T23:03:04.468Z,15.50
2023-05-09T23:05:31.233Z,13.30
2023-05-09T23:07:57.918Z,13.80
2023-05-09T23:10:24.547Z,13.30
2023-05-09T23:12:51.326Z,13.30
2023-05-09T23:15:18.076Z,13.50
2023-05-09T23:17:44.764Z,14.90
2023-05-09T23:20:11.804Z,15.60
2023-05-09T23:22:39.587Z,14.00
2023-05-09T23:25:07.064Z,15.20
2023-05-09T23:27:33.648Z,13.90
2023-05-09T23:30:00.348Z,12.70
2023-05-09T23:32:27.060Z,12.70
2023-05-09T23:34:53.708Z,12.80
2023-05-09T23:37:20.334Z,14.30
2023-05-09T23:39:46.984Z,13.00
2023-05-09T23:42:13.662Z,13.00
2023-05-09T23:44:40.306Z,13.90
2023-05-09T23:47:07.086Z,12.30
2023-05-09T23:49:33.739Z,14.20
2023-05-09T23:52:00.334Z,14.00
2023-05-09T23:54:27.121Z,13.70
2023-05-09T23:56:54.035Z,13.30
2023-05-09T23:59:20.623Z,12.70
